createdAt,value
2022-10-28T00:00:56.558Z,26.45
2022-10-28T00:03:05.606Z,24.88
2022-10-28T00:05:07.806Z,26.52
2022-10-28T00:07:09.741Z,28.40
2022-10-28T00:09:14.645Z,30.33
2022-10-28T00:11:20.401Z,25.13
2022-10-28T00:13:22.260Z,28.50
2022-10-28T00:15:25.217Z,30.13
2022-10-28T00:17:28.193Z,24.55
2022-10-28T00:19:31.219Z,27.52
2022-10-28T00:21:42.943Z,22.52
2022-10-28T00:23:45.566Z,21.73
2022-10-28T00:25:47.464Z,26.20
2022-10-28T00:27:49.411Z,22.83
2022-10-28T00:29:54.039Z,22.92
2022-10-28T00:31:56.020Z,22.50
2022-10-28T00:34:02.898Z,25.55
2022-10-28T00:36:23.907Z,22.40
2022-10-28T00:38:25.707Z,22.02
2022-10-28T00:40:34.986Z,23.40
2022-10-28T00:42:37.910Z,22.58
2022-10-28T00:44:53.485Z,23.02
2022-10-28T00:46:56.531Z,21.60
2022-10-28T00:49:06.415Z,17.17
2022-10-28T00:51:09.757Z,25.67
2022-10-28T00:53:19.430Z,21.70
2022-10-28T00:55:23.120Z,22.90
2022-10-28T00:57:28.983Z,21.20
2022-10-28T00:59:38.095Z,21.98
2022-10-28T01:01:40.262Z,23.67
2022-10-28T01:03:43.344Z,20.00
2022-10-28T01:05:48.122Z,17.60
2022-10-28T01:07:52.647Z,17.92
2022-10-28T01:09:55.984Z,18.52
2022-10-28T01:12:18.259Z,17.80
2022-10-28T01:15:03.018Z,19.60
2022-10-28T01:17:43.375Z,26.83
2022-10-28T01:19:58.707Z,19.00
2022-10-28T01:22:24.100Z,19.25
2022-10-28T01:24:36.189Z,17.83
2022-10-28T01:27:13.519Z,19.23
2022-10-28T01:29:24.128Z,23.20
2022-10-28T01:31:45.217Z,17.77
2022-10-28T01:34:06.027Z,19.65
2022-10-28T01:36:35.677Z,21.87
2022-10-28T01:39:01.491Z,17.17
2022-10-28T01:41:15.384Z,18.50
2022-10-28T01:43:42.213Z,18.08
2022-10-28T01:45:51.100Z,18.00
2022-10-28T01:47:59.451Z,16.42
2022-10-28T01:50:08.514Z,19.25
2022-10-28T01:52:15.031Z,16.48
2022-10-28T01:54:22.384Z,14.93
2022-10-28T01:56:31.286Z,15.73
2022-10-28T01:58:35.479Z,20.35
2022-10-28T02:00:38.803Z,18.63
2022-10-28T02:02:43.525Z,20.20
2022-10-28T02:04:45.518Z,17.92
2022-10-28T02:06:52.036Z,17.45
2022-10-28T02:09:15.231Z,17.38
2022-10-28T02:11:22.731Z,16.60
2022-10-28T02:13:38.228Z,16.67
2022-10-28T02:16:03.014Z,17.77
2022-10-28T02:18:22.835Z,21.33
2022-10-28T02:20:36.186Z,19.63
2022-10-28T02:22:44.664Z,15.98
2022-10-28T02:25:18.891Z,22.08
2022-10-28T02:28:07.118Z,22.83
2022-10-28T02:30:11.476Z,26.80
2022-10-28T02:32:23.142Z,27.00
2022-10-28T02:34:31.228Z,22.70
2022-10-28T02:36:38.380Z,23.13
2022-10-28T02:38:50.270Z,31.42
2022-10-28T02:40:56.855Z,20.55
2022-10-28T02:43:02.932Z,19.50
2022-10-28T02:45:17.796Z,19.50
2022-10-28T02:47:25.471Z,19.88
2022-10-28T02:49:31.380Z,26.33
2022-10-28T02:51:45.254Z,16.67
2022-10-28T02:54:14.566Z,16.25
2022-10-28T02:56:18.317Z,18.42
2022-10-28T02:58:20.868Z,22.42
2022-10-28T03:00:25.236Z,21.38
2022-10-28T03:02:28.398Z,19.20
2022-10-28T03:04:31.839Z,17.30
2022-10-28T03:06:33.772Z,14.50
2022-10-28T03:08:36.695Z,13.32
2022-10-28T03:10:39.587Z,55.45
2022-10-28T03:12:42.392Z,18.30
2022-10-28T03:14:44.285Z,40.10
2022-10-28T03:16:46.186Z,15.70
2022-10-28T03:18:49.453Z,13.70
2022-10-28T03:20:54.246Z,13.50
2022-10-28T03:22:58.706Z,13.25
2022-10-28T03:25:00.522Z,12.70
2022-10-28T03:27:02.316Z,14.63
2022-10-28T03:29:04.197Z,12.60
2022-10-28T03:31:06.119Z,12.48
2022-10-28T03:33:07.937Z,12.65
2022-10-28T03:35:10.036Z,11.57
2022-10-28T03:37:12.268Z,13.68
2022-10-28T03:39:14.121Z,12.05
2022-10-28T03:41:15.981Z,13.23
2022-10-28T03:43:24.842Z,11.85
2022-10-28T03:45:26.807Z,11.38
2022-10-28T03:47:29.652Z,11.65
2022-10-28T03:49:37.377Z,11.90
2022-10-28T03:51:40.213Z,14.82
2022-10-28T03:53:43.132Z,10.32
2022-10-28T03:55:45.107Z,13.00
2022-10-28T03:57:48.070Z,11.63
2022-10-28T03:59:49.945Z,12.77
2022-10-28T04:01:52.959Z,10.52
2022-10-28T04:03:55.001Z,14.57
2022-10-28T04:05:56.940Z,10.55
2022-10-28T04:07:58.791Z,11.00
2022-10-28T04:10:01.614Z,11.20
2022-10-28T04:14:10.442Z,12.60
2022-10-28T04:16:12.230Z,11.88
2022-10-28T04:18:14.072Z,13.32
2022-10-28T04:20:15.994Z,9.73
2022-10-28T04:22:20.010Z,10.88
2022-10-28T04:24:23.022Z,12.25
2022-10-28T04:26:24.914Z,15.55
2022-10-28T04:28:26.842Z,14.65
2022-10-28T04:30:30.745Z,13.73
2022-10-28T04:32:32.667Z,13.35
2022-10-28T04:34:34.528Z,13.98
2022-10-28T04:36:37.387Z,14.38
2022-10-28T04:38:40.207Z,12.07
2022-10-28T04:40:42.271Z,14.95
2022-10-28T04:42:44.231Z,16.35
2022-10-28T04:44:46.149Z,11.30
2022-10-28T04:46:48.066Z,12.35
2022-10-28T04:48:50.095Z,11.52
2022-10-28T04:50:53.619Z,11.05
2022-10-28T04:52:56.563Z,14.07
2022-10-28T04:54:58.653Z,14.90
2022-10-28T04:57:00.594Z,15.68
2022-10-28T04:59:03.568Z,13.90
2022-10-28T05:01:09.533Z,13.25
2022-10-28T05:03:11.430Z,14.65
2022-10-28T05:05:14.722Z,11.73
2022-10-28T05:07:18.707Z,10.50
2022-10-28T05:09:23.151Z,11.65
2022-10-28T05:11:25.121Z,12.30
2022-10-28T05:13:26.961Z,11.20
2022-10-28T05:15:28.958Z,12.48
2022-10-28T05:17:30.786Z,13.00
2022-10-28T05:19:32.604Z,10.85
2022-10-28T05:21:34.498Z,11.50
2022-10-28T05:23:37.397Z,14.40
2022-10-28T05:25:39.358Z,13.88
2022-10-28T05:27:41.332Z,12.05
2022-10-28T05:29:43.254Z,15.82
2022-10-28T05:31:45.688Z,12.65
2022-10-28T05:33:49.673Z,16.63
2022-10-28T05:35:51.943Z,15.65
2022-10-28T05:37:53.876Z,10.85
2022-10-28T05:39:55.863Z,12.45
2022-10-28T05:41:57.743Z,12.73
2022-10-28T05:43:59.790Z,11.38
2022-10-28T05:46:03.099Z,18.55
2022-10-28T05:48:05.686Z,12.30
2022-10-28T05:50:07.915Z,10.75
2022-10-28T05:52:10.799Z,14.25
2022-10-28T05:54:16.751Z,13.27
2022-10-28T05:56:18.918Z,11.10
2022-10-28T05:58:20.901Z,13.18
2022-10-28T06:00:25.507Z,12.80
2022-10-28T06:02:27.339Z,18.45
2022-10-28T06:04:31.310Z,13.23
2022-10-28T06:06:33.322Z,12.00
2022-10-28T06:08:35.261Z,13.38
2022-10-28T06:10:37.178Z,14.13
2022-10-28T06:12:43.265Z,14.60
2022-10-28T06:14:45.181Z,14.10
2022-10-28T06:16:47.239Z,14.93
2022-10-28T06:18:49.487Z,12.70
2022-10-28T06:20:56.863Z,13.68
2022-10-28T06:22:58.725Z,16.00
2022-10-28T06:25:00.633Z,15.20
2022-10-28T06:27:02.815Z,12.73
2022-10-28T06:29:04.701Z,12.90
2022-10-28T06:31:07.975Z,15.13
2022-10-28T06:33:09.855Z,18.75
2022-10-28T06:35:11.780Z,17.15
2022-10-28T06:37:13.846Z,15.25
2022-10-28T06:39:15.922Z,16.92
2022-10-28T06:41:18.825Z,15.65
2022-10-28T06:43:20.722Z,4.47
2022-10-28T06:45:23.654Z,3.65
2022-10-28T06:47:27.217Z,18.63
2022-10-28T06:49:29.565Z,13.32
2022-10-28T06:51:33.524Z,14.77
2022-10-28T06:53:35.532Z,13.27
2022-10-28T06:55:37.483Z,13.95
2022-10-28T06:57:39.355Z,16.95
2022-10-28T06:59:42.428Z,15.00
2022-10-28T07:01:44.900Z,16.38
2022-10-28T07:03:48.020Z,16.33
2022-10-28T07:05:51.736Z,15.32
2022-10-28T07:07:54.234Z,16.33
2022-10-28T07:09:56.347Z,19.25
2022-10-28T07:12:04.575Z,17.45
2022-10-28T07:14:07.061Z,19.33
2022-10-28T07:16:09.253Z,17.30
2022-10-28T07:18:11.351Z,21.48
2022-10-28T07:20:13.332Z,17.00
2022-10-28T07:22:15.291Z,16.00
2022-10-28T07:24:17.280Z,18.40
2022-10-28T07:26:19.205Z,16.58
2022-10-28T07:28:22.885Z,22.27
2022-10-28T07:30:26.229Z,20.88
2022-10-28T07:32:32.777Z,18.17
2022-10-28T07:34:34.777Z,16.13
2022-10-28T07:36:36.920Z,16.70
2022-10-28T07:38:38.993Z,17.90
2022-10-28T07:40:40.859Z,19.63
2022-10-28T07:42:42.810Z,15.93
2022-10-28T07:44:46.731Z,20.02
2022-10-28T07:46:54.247Z,18.90
2022-10-28T07:48:59.227Z,20.30
2022-10-28T07:51:02.693Z,17.13
2022-10-28T07:53:04.745Z,19.55
2022-10-28T07:55:07.967Z,17.80
2022-10-28T07:57:09.855Z,19.08
2022-10-28T07:59:11.713Z,17.98
2022-10-28T08:01:15.869Z,21.90
2022-10-28T08:03:18.897Z,16.02
2022-10-28T08:05:20.788Z,18.20
2022-10-28T08:07:23.571Z,19.77
2022-10-28T08:09:25.498Z,23.17
2022-10-28T08:11:27.372Z,20.20
2022-10-28T08:13:29.193Z,19.90
2022-10-28T08:15:31.090Z,20.25
2022-10-28T08:17:33.982Z,22.27
2022-10-28T08:19:35.919Z,16.63
2022-10-28T08:21:38.736Z,18.00
2022-10-28T08:23:41.752Z,22.98
2022-10-28T08:25:52.160Z,18.48
2022-10-28T08:27:55.106Z,17.70
2022-10-28T08:29:57.024Z,19.60
2022-10-28T08:31:58.884Z,18.55
2022-10-28T08:34:00.934Z,21.92
2022-10-28T08:36:02.814Z,24.73
2022-10-28T08:38:05.070Z,19.83
2022-10-28T08:40:10.378Z,16.40
2022-10-28T08:42:46.960Z,20.65
2022-10-28T08:45:15.769Z,18.83
2022-10-28T08:47:45.315Z,23.15
2022-10-28T08:49:54.704Z,15.55
2022-10-28T08:52:38.778Z,16.27
2022-10-28T08:54:48.175Z,20.45
2022-10-28T08:56:55.231Z,20.23
2022-10-28T08:59:01.336Z,20.52
2022-10-28T09:01:09.443Z,21.27
2022-10-28T09:03:33.263Z,14.23
2022-10-28T09:05:42.572Z,15.05
2022-10-28T09:07:44.427Z,13.65
2022-10-28T09:09:48.559Z,23.58
2022-10-28T09:12:01.874Z,14.93
2022-10-28T09:14:20.361Z,13.77
2022-10-28T09:16:45.986Z,15.15
2022-10-28T09:18:52.723Z,14.63
2022-10-28T09:20:58.236Z,14.68
2022-10-28T09:23:24.406Z,17.42
2022-10-28T09:25:43.668Z,11.70
2022-10-28T09:28:04.194Z,15.05
2022-10-28T09:30:31.733Z,12.88
2022-10-28T09:33:15.599Z,17.27
2022-10-28T09:35:22.429Z,20.95
2022-10-28T09:37:38.869Z,15.45
2022-10-28T09:39:44.224Z,15.90
2022-10-28T09:41:49.193Z,11.35
2022-10-28T09:43:55.455Z,16.77
2022-10-28T09:46:26.132Z,14.35
2022-10-28T09:48:33.355Z,15.07
2022-10-28T09:50:35.377Z,12.50
2022-10-28T09:52:49.475Z,17.70
2022-10-28T09:54:53.829Z,12.10
2022-10-28T09:56:55.773Z,17.10
2022-10-28T09:59:01.451Z,15.98
2022-10-28T10:01:05.143Z,19.02
2022-10-28T10:03:07.020Z,16.95
2022-10-28T10:05:17.893Z,12.60
2022-10-28T10:07:30.800Z,14.02
2022-10-28T10:09:36.005Z,11.38
2022-10-28T10:11:45.141Z,14.15
2022-10-28T10:13:48.381Z,13.20
2022-10-28T10:16:13.544Z,14.38
2022-10-28T10:18:23.677Z,13.15
2022-10-28T10:20:25.714Z,16.55
2022-10-28T10:22:31.977Z,10.70
2022-10-28T10:24:36.057Z,15.52
2022-10-28T10:26:37.939Z,15.15
2022-10-28T10:28:48.696Z,14.80
2022-10-28T10:30:55.000Z,13.10
2022-10-28T10:33:01.948Z,15.70
2022-10-28T10:35:28.871Z,12.70
2022-10-28T10:37:41.472Z,10.88
2022-10-28T10:39:43.382Z,10.80
2022-10-28T10:41:46.282Z,10.80
2022-10-28T10:43:48.154Z,11.20
2022-10-28T10:45:59.155Z,13.60
2022-10-28T10:48:13.767Z,12.70
2022-10-28T10:50:29.105Z,12.50
2022-10-28T10:52:32.159Z,9.20
2022-10-28T10:54:36.218Z,11.93
2022-10-28T10:56:38.609Z,10.35
2022-10-28T10:58:54.263Z,11.38
2022-10-28T11:00:58.979Z,8.45
2022-10-28T11:03:01.584Z,11.32
2022-10-28T11:05:07.891Z,13.45
2022-10-28T11:07:16.354Z,11.23
2022-10-28T11:09:21.137Z,10.73
2022-10-28T11:11:39.494Z,11.77
2022-10-28T11:13:45.982Z,10.80
2022-10-28T11:16:01.170Z,12.70
2022-10-28T11:18:23.847Z,11.55
2022-10-28T11:20:55.297Z,15.18
2022-10-28T11:23:20.850Z,7.38
2022-10-28T11:25:40.951Z,9.82
2022-10-28T11:28:18.028Z,14.13
2022-10-28T11:30:27.645Z,7.90
2022-10-28T11:33:01.407Z,8.50
2022-10-28T11:35:16.179Z,6.13
2022-10-28T11:37:31.271Z,7.47
2022-10-28T11:40:10.611Z,10.70
2022-10-28T11:42:35.549Z,11.10
2022-10-28T11:44:59.616Z,6.20
2022-10-28T11:47:07.639Z,7.63
2022-10-28T11:49:28.847Z,12.25
2022-10-28T11:51:47.596Z,10.07
2022-10-28T11:54:08.014Z,12.48
2022-10-28T11:56:39.568Z,11.20
2022-10-28T11:58:59.226Z,8.02
2022-10-28T12:01:10.853Z,9.18
2022-10-28T12:03:36.073Z,11.20
2022-10-28T12:05:52.755Z,9.38
2022-10-28T12:08:13.630Z,12.13
2022-10-28T12:10:32.592Z,8.18
2022-10-28T12:12:51.246Z,9.75
2022-10-28T12:15:07.124Z,10.35
2022-10-28T12:17:42.832Z,11.13
2022-10-28T12:20:05.560Z,10.32
2022-10-28T12:22:15.461Z,9.50
2022-10-28T12:24:22.391Z,8.55
2022-10-28T12:26:46.897Z,8.27
2022-10-28T12:29:03.651Z,9.20
2022-10-28T12:31:17.529Z,10.48
2022-10-28T12:33:22.484Z,7.00
2022-10-28T12:35:31.021Z,9.40
2022-10-28T12:37:44.720Z,7.53
2022-10-28T12:40:32.054Z,8.15
2022-10-28T12:42:42.388Z,11.15
2022-10-28T12:44:47.729Z,12.25
2022-10-28T12:46:57.711Z,10.75
2022-10-28T12:49:06.566Z,8.43
2022-10-28T12:51:33.830Z,10.35
2022-10-28T12:53:49.352Z,10.05
2022-10-28T12:55:53.853Z,8.30
2022-10-28T12:58:16.629Z,9.43
2022-10-28T13:00:25.929Z,9.10
2022-10-28T13:02:55.226Z,11.60
2022-10-28T13:05:05.111Z,10.77
2022-10-28T13:07:24.939Z,14.93
2022-10-28T13:09:49.199Z,11.27
2022-10-28T13:12:29.622Z,8.90
2022-10-28T13:14:51.805Z,10.98
2022-10-28T13:17:31.898Z,9.77
2022-10-28T13:19:58.542Z,9.13
2022-10-28T13:22:23.300Z,10.77
2022-10-28T13:24:40.643Z,9.85
2022-10-28T13:26:45.598Z,8.13
2022-10-28T13:29:24.118Z,9.95
2022-10-28T13:31:44.601Z,6.88
2022-10-28T13:34:00.300Z,10.45
2022-10-28T13:36:31.690Z,10.27
2022-10-28T13:38:35.662Z,8.35
2022-10-28T13:40:43.879Z,8.55
2022-10-28T13:42:48.665Z,13.65
2022-10-28T13:44:51.892Z,11.57
2022-10-28T13:47:02.067Z,7.72
2022-10-28T13:49:28.591Z,8.52
2022-10-28T13:51:33.328Z,9.13
2022-10-28T13:53:57.028Z,8.75
2022-10-28T13:56:29.781Z,9.13
2022-10-28T13:58:32.786Z,9.70
2022-10-28T14:00:36.687Z,9.70
2022-10-28T14:02:48.434Z,10.55
2022-10-28T14:05:03.372Z,11.38
2022-10-28T14:07:11.378Z,11.18
2022-10-28T14:09:27.915Z,9.40
2022-10-28T14:11:32.865Z,10.63
2022-10-28T14:13:49.702Z,8.95
2022-10-28T14:16:14.856Z,15.73
2022-10-28T14:20:46.819Z,9.45
2022-10-28T14:22:49.067Z,8.65
2022-10-28T14:25:27.688Z,8.75
2022-10-28T14:27:30.308Z,16.45
2022-10-28T14:29:43.907Z,10.20
2022-10-28T14:31:52.787Z,10.30
2022-10-28T14:34:14.727Z,12.25
2022-10-28T14:36:19.851Z,14.98
2022-10-28T14:38:39.463Z,12.57
2022-10-28T14:40:52.514Z,12.45
2022-10-28T14:43:04.886Z,10.98
2022-10-28T14:45:27.813Z,10.95
2022-10-28T14:47:57.633Z,14.57
2022-10-28T14:50:04.101Z,11.93
2022-10-28T14:52:17.865Z,13.02
2022-10-28T14:54:36.592Z,13.75
2022-10-28T14:56:46.910Z,10.68
2022-10-28T14:58:50.661Z,12.85
2022-10-28T15:01:16.721Z,11.77
2022-10-28T15:03:19.844Z,8.32
2022-10-28T15:05:26.793Z,10.05
2022-10-28T15:07:32.838Z,12.43
2022-10-28T15:09:43.799Z,10.35
2022-10-28T15:12:11.416Z,16.02
2022-10-28T15:14:26.421Z,12.95
2022-10-28T15:16:28.357Z,9.98
2022-10-28T15:18:30.378Z,8.18
2022-10-28T15:20:35.086Z,14.40
2022-10-28T15:22:37.092Z,12.25
2022-10-28T15:24:43.125Z,17.30
2022-10-28T15:26:54.913Z,10.68
2022-10-28T15:28:57.077Z,16.15
2022-10-28T15:30:59.956Z,13.55
2022-10-28T15:33:21.731Z,12.80
2022-10-28T15:35:38.425Z,11.10
2022-10-28T15:37:41.612Z,12.98
2022-10-28T15:39:46.026Z,11.50
2022-10-28T15:41:54.042Z,11.80
2022-10-28T15:44:03.468Z,13.80
2022-10-28T15:46:16.480Z,16.75
2022-10-28T15:48:27.779Z,14.85
2022-10-28T15:50:35.265Z,11.93
2022-10-28T15:52:40.132Z,13.60
2022-10-28T15:54:42.470Z,15.05
2022-10-28T15:56:57.304Z,14.48
2022-10-28T15:59:07.580Z,17.70
2022-10-28T16:01:38.459Z,11.50
2022-10-28T16:03:46.231Z,14.85
2022-10-28T16:05:49.021Z,13.38
2022-10-28T16:07:53.410Z,14.80
2022-10-28T16:09:58.060Z,11.02
2022-10-28T16:12:04.407Z,13.32
2022-10-28T16:14:41.078Z,13.77
2022-10-28T16:16:43.924Z,9.13
2022-10-28T16:18:48.492Z,9.73
2022-10-28T16:20:50.828Z,11.02
2022-10-28T16:22:53.353Z,12.88
2022-10-28T16:24:56.410Z,13.70
2022-10-28T16:27:19.445Z,12.57
2022-10-28T16:29:21.290Z,11.77
2022-10-28T16:31:28.180Z,14.07
2022-10-28T16:33:34.813Z,12.43
2022-10-28T16:35:36.776Z,12.30
2022-10-28T16:37:44.508Z,12.05
2022-10-28T16:39:48.045Z,14.32
2022-10-28T16:41:50.723Z,13.77
2022-10-28T16:43:53.475Z,15.40
2022-10-28T16:45:57.220Z,11.90
2022-10-28T16:47:59.072Z,10.15
2022-10-28T16:50:01.215Z,13.68
2022-10-28T16:52:03.277Z,9.90
2022-10-28T16:54:10.537Z,10.45
2022-10-28T16:56:15.623Z,10.93
2022-10-28T16:58:21.815Z,13.57
2022-10-28T17:00:27.873Z,9.93
2022-10-28T17:02:33.552Z,12.00
2022-10-28T17:04:39.045Z,11.23
2022-10-28T17:06:41.096Z,14.57
2022-10-28T17:09:01.917Z,16.95
2022-10-28T17:11:05.007Z,17.70
2022-10-28T17:13:13.734Z,18.80
2022-10-28T17:15:16.173Z,18.80
2022-10-28T17:17:18.784Z,12.77
2022-10-28T17:19:20.811Z,12.55
2022-10-28T17:21:22.703Z,14.48
2022-10-28T17:23:26.053Z,13.13
2022-10-28T17:25:28.236Z,15.05
2022-10-28T17:27:30.243Z,13.93
2022-10-28T17:29:32.140Z,9.73
2022-10-28T17:31:34.516Z,10.32
2022-10-28T17:33:37.323Z,13.98
2022-10-28T17:35:39.319Z,12.10
2022-10-28T17:37:41.643Z,10.80
2022-10-28T17:39:43.811Z,11.82
2022-10-28T17:41:46.278Z,11.48
2022-10-28T17:43:48.487Z,12.80
2022-10-28T17:45:51.359Z,11.60
2022-10-28T17:47:53.280Z,13.90
2022-10-28T17:49:56.254Z,12.77
2022-10-28T17:51:58.675Z,13.80
2022-10-28T17:54:00.777Z,11.43
2022-10-28T17:56:05.638Z,15.63
2022-10-28T17:58:09.263Z,10.98
2022-10-28T18:00:11.732Z,11.52
2022-10-28T18:02:15.432Z,13.52
2022-10-28T18:04:26.833Z,11.07
2022-10-28T18:06:28.955Z,9.13
2022-10-28T18:08:36.206Z,11.80
2022-10-28T18:10:38.167Z,10.93
2022-10-28T18:12:40.188Z,10.95
2022-10-28T18:14:42.348Z,11.40
2022-10-28T18:16:46.235Z,14.60
2022-10-28T18:18:49.459Z,13.15
2022-10-28T18:20:56.167Z,14.57
2022-10-28T18:22:59.456Z,14.55
2022-10-28T18:25:01.873Z,12.82
2022-10-28T18:27:04.081Z,15.65
2022-10-28T18:29:10.460Z,9.55
2022-10-28T18:31:18.526Z,12.50
2022-10-28T18:33:22.188Z,13.43
2022-10-28T18:35:24.561Z,9.63
2022-10-28T18:37:28.934Z,14.63
2022-10-28T18:39:31.123Z,12.65
2022-10-28T18:41:38.550Z,13.75
2022-10-28T18:43:41.541Z,12.65
2022-10-28T18:45:44.065Z,12.15
2022-10-28T18:47:46.281Z,12.10
2022-10-28T18:49:48.569Z,15.93
2022-10-28T18:51:50.959Z,14.52
2022-10-28T18:53:53.452Z,14.27
2022-10-28T18:56:01.601Z,11.65
2022-10-28T18:58:03.985Z,10.85
2022-10-28T19:00:24.200Z,9.95
2022-10-28T19:02:28.705Z,12.02
2022-10-28T19:04:32.696Z,14.75
2022-10-28T19:06:35.147Z,12.70
2022-10-28T19:08:37.883Z,11.07
2022-10-28T19:10:40.113Z,15.85
2022-10-28T19:12:45.018Z,13.35
2022-10-28T19:14:51.998Z,18.52
2022-10-28T19:16:54.057Z,9.23
2022-10-28T19:18:57.709Z,11.82
2022-10-28T19:21:04.546Z,9.27
2022-10-28T19:23:06.896Z,9.93
2022-10-28T19:25:09.444Z,10.38
2022-10-28T19:27:12.222Z,10.25
2022-10-28T19:29:14.251Z,14.02
2022-10-28T19:31:21.912Z,8.95
2022-10-28T19:33:24.067Z,10.98
2022-10-28T19:35:26.192Z,11.68
2022-10-28T19:37:28.456Z,12.10
2022-10-28T19:39:30.590Z,9.38
2022-10-28T19:41:33.635Z,11.90
2022-10-28T19:43:36.745Z,10.57
2022-10-28T19:45:38.807Z,11.35
2022-10-28T19:47:41.249Z,10.93
2022-10-28T19:49:44.508Z,14.10
2022-10-28T19:51:47.291Z,8.95
2022-10-28T19:53:54.579Z,10.85
2022-10-28T19:56:01.557Z,12.15
2022-10-28T19:58:04.238Z,9.40
2022-10-28T20:00:07.216Z,10.02
2022-10-28T20:02:11.985Z,8.68
2022-10-28T20:04:14.915Z,9.18
2022-10-28T20:06:19.885Z,10.68
2022-10-28T20:08:25.678Z,11.63
2022-10-28T20:10:27.768Z,10.68
2022-10-28T20:12:30.075Z,9.52
2022-10-28T20:14:32.776Z,10.02
2022-10-28T20:16:35.521Z,8.13
2022-10-28T20:18:42.656Z,8.65
2022-10-28T20:20:44.562Z,7.68
2022-10-28T20:22:46.838Z,11.82
2022-10-28T20:24:49.031Z,9.10
2022-10-28T20:26:52.359Z,10.10
2022-10-28T20:28:54.952Z,9.70
2022-10-28T20:31:09.066Z,12.73
2022-10-28T20:33:13.606Z,11.98
2022-10-28T20:35:15.584Z,11.45
2022-10-28T20:37:19.657Z,10.20
2022-10-28T20:39:22.368Z,12.63
2022-10-28T20:41:25.822Z,10.18
2022-10-28T20:43:29.265Z,10.13
2022-10-28T20:45:31.119Z,9.45
2022-10-28T20:47:33.211Z,12.02
2022-10-28T20:49:35.219Z,13.15
2022-10-28T20:51:37.183Z,10.07
2022-10-28T20:53:39.237Z,11.45
2022-10-28T20:55:46.380Z,13.98
2022-10-28T20:57:48.226Z,10.05
2022-10-28T20:59:51.827Z,8.95
2022-10-28T21:01:59.087Z,10.85
2022-10-28T21:04:07.266Z,8.30
2022-10-28T21:06:10.152Z,10.07
2022-10-28T21:08:15.404Z,11.50
2022-10-28T21:10:19.232Z,12.52
2022-10-28T21:12:21.247Z,12.07
2022-10-28T21:14:23.115Z,12.55
2022-10-28T21:16:26.016Z,11.57
2022-10-28T21:18:27.963Z,9.57
2022-10-28T21:20:30.305Z,11.65
2022-10-28T21:22:36.035Z,10.63
2022-10-28T21:24:37.970Z,12.35
2022-10-28T21:26:39.947Z,14.02
2022-10-28T21:28:41.939Z,13.07
2022-10-28T21:30:43.788Z,10.65
2022-10-28T21:32:45.733Z,10.68
2022-10-28T21:34:47.640Z,10.25
2022-10-28T21:36:49.537Z,10.05
2022-10-28T21:38:56.193Z,9.52
2022-10-28T21:41:07.705Z,11.82
2022-10-28T21:43:11.262Z,9.82
2022-10-28T21:45:13.224Z,7.68
2022-10-28T21:47:15.221Z,10.35
2022-10-28T21:49:17.137Z,10.07
2022-10-28T21:51:22.885Z,11.55
2022-10-28T21:53:25.975Z,14.77
2022-10-28T21:55:45.811Z,9.93
2022-10-28T21:57:48.321Z,15.27
2022-10-28T21:59:50.192Z,10.27
2022-10-28T22:01:52.278Z,14.45
2022-10-28T22:03:55.790Z,8.30
2022-10-28T22:05:57.743Z,7.13
2022-10-28T22:08:02.974Z,10.98
2022-10-28T22:10:07.273Z,11.77
2022-10-28T22:12:09.305Z,11.65
2022-10-28T22:14:11.182Z,12.30
2022-10-28T22:16:15.923Z,10.27
2022-10-28T22:18:17.745Z,9.77
2022-10-28T22:20:19.924Z,11.50
2022-10-28T22:22:21.886Z,12.60
2022-10-28T22:24:23.858Z,13.93
2022-10-28T22:26:28.720Z,7.40
2022-10-28T22:28:30.657Z,12.60
2022-10-28T22:30:32.699Z,11.63
2022-10-28T22:32:34.607Z,11.43
2022-10-28T22:34:36.537Z,12.05
2022-10-28T22:36:40.478Z,12.82
2022-10-28T22:38:43.133Z,9.63
2022-10-28T22:40:44.959Z,10.10
2022-10-28T22:42:46.816Z,9.60
2022-10-28T22:44:48.637Z,10.90
2022-10-28T22:46:51.566Z,9.50
2022-10-28T22:48:54.072Z,11.57
2022-10-28T22:50:56.343Z,8.32
2022-10-28T22:52:58.193Z,9.88
2022-10-28T22:55:00.080Z,11.10
2022-10-28T22:57:01.979Z,13.38
2022-10-28T22:59:03.913Z,9.30
2022-10-28T23:01:17.584Z,16.83
2022-10-28T23:03:19.859Z,11.93
2022-10-28T23:05:21.801Z,13.20
2022-10-28T23:07:23.657Z,13.70
2022-10-28T23:09:25.526Z,11.13
2022-10-28T23:11:28.237Z,12.95
2022-10-28T23:13:30.161Z,12.35
2022-10-28T23:15:32.194Z,12.95
2022-10-28T23:17:34.057Z,10.75
2022-10-28T23:19:35.928Z,8.77
2022-10-28T23:21:37.842Z,11.55
2022-10-28T23:23:41.078Z,10.98
2022-10-28T23:25:43.024Z,10.90
2022-10-28T23:27:45.092Z,11.88
2022-10-28T23:29:47.132Z,13.63
2022-10-28T23:31:49.044Z,15.23
2022-10-28T23:33:52.568Z,10.25
2022-10-28T23:35:55.634Z,10.85
2022-10-28T23:37:59.385Z,11.48
2022-10-28T23:40:01.326Z,12.73
2022-10-28T23:42:03.272Z,9.35
2022-10-28T23:44:05.235Z,8.73
2022-10-28T23:46:07.148Z,9.68
2022-10-28T23:48:09.057Z,9.15
2022-10-28T23:50:11.232Z,11.77
2022-10-28T23:52:13.158Z,9.75
2022-10-28T23:54:15.014Z,15.35
2022-10-28T23:56:16.959Z,13.63
2022-10-28T23:58:21.035Z,10.70
